Time;durP1;ratioP1;P1;durP2;ratioP2;P2;SDS_P1;SDS_P2;PMS_P1;PMS_P2;Temp;Humidity;BMP_temperature;BMP_pressure;BME280_temperature;BME280_humidity;BME280_pressure;Samples;Min_cycle;Max_cycle;Signal;HPM_P1;HPM_P2
2022/01/20 00:02:20;;;;;;;22.70;8.98;;;;;;;2.18;100.00;101432.41;4965982;28;20884;-62
2022/01/20 00:04:52;;;;;;;26.77;8.65;;;;;;;2.39;100.00;101463.53;4965813;28;20140;-62
2022/01/20 00:07:48;;;;;;;26.35;7.25;;;;;;;2.09;100.00;101422.91;4965837;28;20030;-62
2022/01/20 00:26:28;;;;;;;20.70;8.15;;;;;;;2.23;100.00;101456.63;4970116;28;20045;-62
2022/01/20 00:29:00;;;;;;;26.60;8.90;;;;;;;2.14;100.00;101447.09;4968850;28;20920;-62
2022/01/20 00:33:57;;;;;;;25.38;7.57;;;;;;;2.10;100.00;101460.03;4969145;28;20073;-62
2022/01/20 00:39:06;;;;;;;17.85;7.00;;;;;;;2.17;100.00;101478.19;4971229;28;20842;-62
2022/01/20 00:41:32;;;;;;;36.78;7.85;;;;;;;2.21;100.00;101468.69;4972529;28;20022;-63
2022/01/20 00:43:57;;;;;;;16.05;6.57;;;;;;;2.19;100.00;101470.44;4969986;28;20883;-62
2022/01/20 00:46:22;;;;;;;27.77;7.65;;;;;;;2.08;100.00;101461.78;4969212;28;20061;-62
2022/01/20 00:48:48;;;;;;;28.00;8.07;;;;;;;2.09;100.00;101458.31;4968703;28;20883;-62
2022/01/20 00:51:14;;;;;;;39.78;8.25;;;;;;;2.16;100.00;101493.78;4968744;28;20032;-62
2022/01/20 00:53:44;;;;;;;32.28;7.40;;;;;;;1.86;100.00;101447.94;4969204;28;20880;-62
2022/01/20 00:56:13;;;;;;;22.40;6.97;;;;;;;2.06;100.00;101490.28;4968344;28;20040;-62
2022/01/20 00:58:39;;;;;;;22.67;8.32;;;;;;;1.98;100.00;101482.50;4970913;28;20025;-62
2022/01/20 01:01:04;;;;;;;21.67;6.07;;;;;;;1.92;100.00;101482.50;4971193;28;20952;-62
2022/01/20 01:03:30;;;;;;;16.15;6.80;;;;;;;1.90;100.00;101489.38;4971220;28;20721;-61
2022/01/20 01:08:40;;;;;;;28.83;7.17;;;;;;;2.02;100.00;101483.38;4972067;28;20772;-62
2022/01/20 01:11:05;;;;;;;23.38;7.53;;;;;;;2.01;100.00;101482.50;4969005;28;20294;-62
2022/01/20 01:13:31;;;;;;;22.38;7.75;;;;;;;2.00;100.00;101496.31;4969731;28;20910;-62
2022/01/20 01:15:56;;;;;;;26.52;7.63;;;;;;;1.86;100.00;101474.69;4968563;28;20248;-62
2022/01/20 01:21:15;;;;;;;24.73;7.57;;;;;;;2.11;100.00;101492.88;4968825;28;20056;-63
2022/01/20 01:23:43;;;;;;;25.88;7.28;;;;;;;2.13;100.00;101496.34;4968559;28;20040;-63
2022/01/20 01:26:13;;;;;;;27.17;7.22;;;;;;;2.12;100.00;101487.72;4969479;28;20038;-63
2022/01/20 01:28:40;;;;;;;18.40;6.95;;;;;;;2.13;100.00;101481.66;4969550;28;20133;-63
2022/01/20 01:33:37;;;;;;;30.88;6.90;;;;;;;2.02;100.00;101494.63;4968725;28;20038;-63
2022/01/20 01:36:04;;;;;;;23.30;6.68;;;;;;;1.92;100.00;101492.84;4967690;28;20050;-62
2022/01/20 01:38:36;;;;;;;28.48;7.28;;;;;;;1.93;100.00;101499.75;4968651;28;20867;-62
2022/01/20 01:41:13;;;;;;;19.88;7.15;;;;;;;1.99;100.00;101507.53;4969521;28;20084;-62
2022/01/20 01:43:48;;;;;;;19.92;7.10;;;;;;;2.03;100.00;101516.19;4968543;28;20094;-62
2022/01/20 01:46:15;;;;;;;23.17;7.35;;;;;;;2.01;100.00;101511.00;4968383;28;20033;-62
2022/01/20 01:48:41;;;;;;;31.83;8.15;;;;;;;1.85;100.00;101496.28;4967846;28;20045;-62
2022/01/20 01:51:07;;;;;;;16.55;7.22;;;;;;;1.44;100.00;101418.47;4967562;28;20096;-62
2022/01/20 01:53:33;;;;;;;31.92;7.32;;;;;;;2.01;100.00;101503.22;4968301;28;20034;-62
2022/01/20 01:55:58;;;;;;;23.05;7.30;;;;;;;2.14;100.00;101511.03;4967892;28;20951;-62
2022/01/20 01:58:24;;;;;;;28.30;8.57;;;;;;;2.06;100.00;101485.94;4967417;28;20125;-62
2022/01/20 02:00:50;;;;;;;24.50;7.95;;;;;;;2.28;100.00;101509.31;4969682;28;20074;-62
2022/01/20 02:03:15;;;;;;;22.23;6.40;;;;;;;2.31;100.00;101514.50;4967117;28;20962;-63
2022/01/20 02:19:06;;;;;;;17.35;6.28;;;;;;;2.52;100.00;101511.94;4967566;28;20204;-62
2022/01/20 02:21:32;;;;;;;17.08;7.18;;;;;;;2.47;100.00;101506.75;4967071;28;20030;-62
2022/01/20 02:23:57;;;;;;;28.00;8.20;;;;;;;2.57;100.00;101511.06;4967300;28;20084;-62
2022/01/20 02:26:22;;;;;;;21.95;7.03;;;;;;;2.69;100.00;101519.72;4966538;28;20893;-62
2022/01/20 02:28:48;;;;;;;29.65;8.13;;;;;;;2.63;100.00;101486.88;4967113;28;20033;-62
2022/01/20 02:31:14;;;;;;;16.13;6.57;;;;;;;2.72;100.00;101497.25;4967710;28;20825;-62
2022/01/20 02:33:39;;;;;;;23.10;7.05;;;;;;;2.67;100.00;101506.75;4969263;28;20835;-63
2022/01/20 02:36:10;;;;;;;15.73;6.30;;;;;;;2.50;100.00;101488.59;4966965;28;20141;-62
2022/01/20 02:38:41;;;;;;;17.40;5.80;;;;;;;2.44;100.00;101493.78;4966620;28;20951;-64
2022/01/20 02:46:35;;;;;;;18.17;5.40;;;;;;;2.36;100.00;101525.78;4967337;28;20052;-62
2022/01/20 02:49:01;;;;;;;20.88;7.13;;;;;;;2.08;100.00;101498.06;4967896;28;20116;-62
2022/01/20 02:51:26;;;;;;;17.48;6.43;;;;;;;2.19;100.00;101517.09;4966210;28;20987;-62
2022/01/20 02:53:52;;;;;;;13.23;4.68;;;;;;;1.94;100.00;101475.56;4967846;28;20932;-62
2022/01/20 02:56:18;;;;;;;13.13;5.35;;;;;;;2.13;100.00;101510.16;4967996;28;20033;-62
2022/01/20 02:58:43;;;;;;;21.58;5.97;;;;;;;2.08;100.00;101508.44;4968026;28;20030;-62
2022/01/20 03:01:09;;;;;;;15.07;5.82;;;;;;;1.69;100.00;101450.44;4966310;28;20026;-62
2022/01/20 03:03:35;;;;;;;18.20;6.10;;;;;;;1.90;100.00;101489.38;4966917;28;20133;-62
2022/01/20 03:06:01;;;;;;;20.85;5.63;;;;;;;1.96;100.00;101504.09;4966830;28;20061;-62
2022/01/20 03:08:27;;;;;;;19.98;6.07;;;;;;;1.87;100.00;101484.19;4966339;28;20034;-62
2022/01/20 03:10:52;;;;;;;20.50;5.72;;;;;;;1.87;100.00;101486.78;4966429;28;20041;-62
2022/01/20 03:13:18;;;;;;;19.30;5.30;;;;;;;1.88;100.00;101490.25;4966491;28;20041;-62
2022/01/20 03:15:44;;;;;;;13.05;5.38;;;;;;;1.88;100.00;101485.94;4968632;28;20041;-62
2022/01/20 03:18:10;;;;;;;24.20;5.75;;;;;;;1.86;100.00;101482.44;4966659;28;20868;-62
2022/01/20 03:20:35;;;;;;;22.55;5.38;;;;;;;1.87;100.00;101494.56;4966155;28;20034;-63
2022/01/20 03:23:01;;;;;;;19.60;6.88;;;;;;;1.99;100.00;101499.75;4966222;28;20893;-62
2022/01/20 03:25:27;;;;;;;18.95;5.82;;;;;;;2.12;100.00;101499.81;4965767;28;20546;-62
2022/01/20 03:27:53;;;;;;;16.08;6.70;;;;;;;2.14;100.00;101479.91;4966105;28;20105;-62
2022/01/20 03:30:18;;;;;;;22.20;6.00;;;;;;;2.13;100.00;101475.63;4966057;28;20060;-62
2022/01/20 03:32:44;;;;;;;21.80;6.95;;;;;;;2.27;100.00;101494.63;4966758;28;20036;-62
2022/01/20 03:35:11;;;;;;;16.63;6.25;;;;;;;2.32;100.00;101495.50;4967512;28;20026;-62
2022/01/20 03:37:37;;;;;;;18.25;7.50;;;;;;;2.10;100.00;101454.84;4967104;28;20423;-62
2022/01/20 03:40:04;;;;;;;30.25;7.70;;;;;;;2.41;100.00;101500.69;4966398;28;20061;-62
2022/01/20 03:42:29;;;;;;;25.63;7.90;;;;;;;2.40;100.00;101486.03;4966610;28;20024;-62
2022/01/20 03:44:55;;;;;;;18.73;7.22;;;;;;;2.48;100.00;101486.88;4966101;28;20034;-63
2022/01/20 03:47:24;;;;;;;26.55;7.10;;;;;;;2.52;100.00;101483.41;4965983;28;20030;-62
2022/01/20 03:52:17;;;;;;;17.42;6.75;;;;;;;2.38;100.00;101457.47;4966602;28;20640;-63
2022/01/20 03:54:43;;;;;;;27.75;7.90;;;;;;;2.50;100.00;101472.19;4969079;28;20029;-63
2022/01/20 03:57:08;;;;;;;23.45;7.30;;;;;;;2.56;100.00;101488.63;4972933;28;20854;-63
2022/01/20 03:59:34;;;;;;;27.83;7.22;;;;;;;2.52;100.00;101486.00;4971476;28;20129;-63
2022/01/20 04:01:59;;;;;;;24.67;7.03;;;;;;;2.40;100.00;101471.28;4970172;28;20030;-62
2022/01/20 04:04:24;;;;;;;17.77;6.55;;;;;;;2.41;100.00;101464.38;4972383;28;20824;-63
2022/01/20 04:06:50;;;;;;;16.55;6.38;;;;;;;2.43;100.00;101475.66;4969915;28;20053;-63
2022/01/20 04:09:15;;;;;;;25.90;7.18;;;;;;;2.38;100.00;101472.16;4969847;28;20057;-63
2022/01/20 04:11:41;;;;;;;14.07;6.00;;;;;;;2.31;100.00;101467.84;4969179;28;20920;-62
2022/01/20 04:14:06;;;;;;;18.65;6.15;;;;;;;2.29;100.00;101467.00;4969710;28;20029;-63
2022/01/20 04:16:53;;;;;;;18.02;6.45;;;;;;;2.37;100.00;101486.00;4968440;28;20865;-62
2022/01/20 04:19:20;;;;;;;20.67;6.05;;;;;;;1.99;100.00;101434.97;4969488;28;20029;-62
2022/01/20 04:21:45;;;;;;;12.80;5.25;;;;;;;2.16;100.00;101475.63;4971305;28;20971;-62
2022/01/20 04:24:11;;;;;;;16.38;6.18;;;;;;;2.14;100.00;101482.50;4969312;28;20022;-62
2022/01/20 04:26:38;;;;;;;22.48;6.22;;;;;;;2.06;100.00;101469.56;4969383;28;20910;-62
2022/01/20 04:29:05;;;;;;;16.73;5.10;;;;;;;1.98;100.00;101472.13;4968897;28;20037;-62
2022/01/20 04:31:34;;;;;;;16.00;4.95;;;;;;;2.02;100.00;101494.63;4970943;28;22757;-62
2022/01/20 04:33:59;;;;;;;13.88;6.05;;;;;;;2.05;100.00;101496.34;4969043;28;20093;-62
2022/01/20 04:36:32;;;;;;;15.85;5.63;;;;;;;2.09;100.00;101494.63;4969861;28;20093;-62
2022/01/20 04:39:00;;;;;;;13.73;5.38;;;;;;;1.96;100.00;101475.59;4968768;28;20933;-62
2022/01/20 04:41:28;;;;;;;15.05;4.50;;;;;;;2.15;100.00;101479.06;4967454;28;20895;-62
2022/01/20 04:43:54;;;;;;;16.55;5.70;;;;;;;2.15;100.00;101494.63;4968804;28;21050;-62
2022/01/20 04:46:41;;;;;;;20.02;5.18;;;;;;;2.11;100.00;101493.75;4969046;28;20030;-62
2022/01/20 04:57:21;;;;;;;18.13;5.32;;;;;;;1.94;100.00;101496.31;4968558;28;20048;-62
2022/01/20 04:59:49;;;;;;;15.80;5.45;;;;;;;2.03;100.00;101511.88;4968489;28;20096;-62
2022/01/20 05:02:15;;;;;;;16.73;5.45;;;;;;;2.00;100.00;101480.75;4968366;28;20955;-62
2022/01/20 05:04:40;;;;;;;16.63;5.97;;;;;;;2.12;100.00;101494.63;4967348;28;20503;-63
2022/01/20 05:07:07;;;;;;;18.90;4.43;;;;;;;2.16;100.00;101496.38;4967332;28;20037;-62
2022/01/20 05:09:33;;;;;;;16.35;5.50;;;;;;;2.17;100.00;101498.06;4968350;28;20480;-62
2022/01/20 05:12:07;;;;;;;14.43;4.95;;;;;;;2.19;100.00;101509.31;4968982;28;20037;-62
2022/01/20 05:14:32;;;;;;;13.15;4.70;;;;;;;2.20;100.00;101508.47;4967897;28;20062;-62
2022/01/20 05:16:58;;;;;;;18.27;5.40;;;;;;;2.15;100.00;101492.91;4968075;28;20048;-62
2022/01/20 05:19:25;;;;;;;24.13;5.03;;;;;;;2.42;100.00;101530.97;4968288;28;20934;-63
2022/01/20 05:21:51;;;;;;;19.27;4.93;;;;;;;2.56;100.00;101526.66;4967795;28;20018;-62
2022/01/20 05:24:17;;;;;;;12.88;3.72;;;;;;;2.57;100.00;101528.38;4966888;28;20282;-62
2022/01/20 05:26:42;;;;;;;20.58;4.25;;;;;;;2.57;100.00;101515.41;4967939;28;20060;-62
2022/01/20 05:29:07;;;;;;;12.15;4.38;;;;;;;2.52;100.00;101519.72;4968263;28;20041;-62
2022/01/20 05:31:33;;;;;;;18.50;4.05;;;;;;;2.55;100.00;101517.13;4967857;28;20025;-62
2022/01/20 05:33:58;;;;;;;14.85;3.42;;;;;;;2.44;100.00;101496.38;4967937;28;20941;-62
2022/01/20 05:36:24;;;;;;;15.85;4.60;;;;;;;2.56;100.00;101513.69;4966920;28;20786;-62
2022/01/20 05:38:49;;;;;;;16.73;3.70;;;;;;;2.56;100.00;101513.69;4968302;28;20092;-62
2022/01/20 05:41:15;;;;;;;11.88;3.47;;;;;;;2.52;100.00;101519.72;4970713;28;20174;-62
2022/01/20 05:43:40;;;;;;;7.78;3.65;;;;;;;2.56;100.00;101530.13;4969306;28;20942;-62
2022/01/20 05:46:05;;;;;;;13.55;4.00;;;;;;;2.36;100.00;101505.03;4970318;28;20879;-62
2022/01/20 05:48:33;;;;;;;11.25;4.38;;;;;;;2.50;100.00;101534.44;4971016;28;20032;-62
2022/01/20 05:50:59;;;;;;;14.32;3.75;;;;;;;2.57;100.00;101541.34;4970239;28;20215;-62
2022/01/20 05:53:25;;;;;;;12.40;4.07;;;;;;;2.21;100.00;101482.53;4969916;28;20030;-62
2022/01/20 05:55:51;;;;;;;7.95;3.63;;;;;;;2.60;100.00;101543.97;4968047;28;20045;-62
2022/01/20 05:58:16;;;;;;;13.43;3.78;;;;;;;2.37;100.00;101506.72;4967552;28;20142;-62
2022/01/20 06:00:42;;;;;;;13.38;3.35;;;;;;;2.44;100.00;101524.03;4967248;28;20912;-62
2022/01/20 06:05:52;;;;;;;9.77;3.38;;;;;;;2.60;100.00;101572.50;4967865;28;20048;-62
2022/01/20 06:08:18;;;;;;;13.27;3.95;;;;;;;2.63;100.00;101577.69;4967918;28;20030;-62
2022/01/20 06:10:44;;;;;;;18.35;4.78;;;;;;;2.63;100.00;101582.88;4968079;28;20907;-62
2022/01/20 06:13:11;;;;;;;12.07;4.13;;;;;;;2.64;100.00;101587.19;4968554;28;20953;-62
2022/01/20 06:15:36;;;;;;;8.35;3.22;;;;;;;2.63;100.00;101585.47;4967006;28;20033;-62
2022/01/20 06:18:02;;;;;;;10.68;3.33;;;;;;;2.62;100.00;101586.31;4968723;28;20137;-62
2022/01/20 06:20:28;;;;;;;13.35;4.10;;;;;;;2.53;100.00;101581.97;4966890;28;20900;-62
2022/01/20 06:22:54;;;;;;;9.85;4.15;;;;;;;2.54;100.00;101577.66;4965922;28;20034;-62
2022/01/20 06:25:20;;;;;;;17.33;4.45;;;;;;;2.49;100.00;101579.38;4967164;28;20129;-62
2022/01/20 06:27:45;;;;;;;8.75;3.60;;;;;;;2.46;100.00;101589.75;4967252;28;20826;-62
2022/01/20 06:30:11;;;;;;;14.35;4.80;;;;;;;2.43;100.00;101594.94;4967011;28;20089;-62
2022/01/20 06:32:37;;;;;;;9.35;4.55;;;;;;;2.36;100.00;101585.41;4969810;28;20033;-62
2022/01/20 06:35:03;;;;;;;14.93;5.03;;;;;;;2.37;100.00;101587.13;4966258;28;21073;-62
2022/01/20 06:37:28;;;;;;;10.20;4.90;;;;;;;2.17;100.00;101555.97;4968647;28;20034;-62
2022/01/20 06:39:54;;;;;;;12.05;4.53;;;;;;;2.39;100.00;101608.75;4967610;28;20039;-62
2022/01/20 06:42:19;;;;;;;8.68;4.60;;;;;;;2.04;100.00;101565.44;4967554;28;20844;-62
2022/01/20 06:44:45;;;;;;;12.88;3.55;;;;;;;2.38;100.00;101622.56;4966719;28;20909;-62
2022/01/20 06:47:10;;;;;;;11.18;4.35;;;;;;;2.37;100.00;101626.91;4967397;28;20881;-62
2022/01/20 06:49:36;;;;;;;9.45;4.60;;;;;;;2.37;100.00;101644.19;4967640;28;20917;-62
2022/01/20 06:52:01;;;;;;;10.77;3.67;;;;;;;2.39;100.00;101647.66;4966614;28;20030;-62
2022/01/20 06:54:27;;;;;;;19.60;4.05;;;;;;;2.29;100.00;101643.31;4966871;28;20834;-62
2022/01/20 06:56:52;;;;;;;9.35;3.63;;;;;;;2.35;100.00;101653.69;4966466;28;20033;-62
2022/01/20 06:59:18;;;;;;;9.70;3.42;;;;;;;2.36;100.00;101658.91;4967456;28;20058;-62
2022/01/20 07:01:45;;;;;;;9.05;3.55;;;;;;;2.37;100.00;101672.69;4967233;28;20037;-62
2022/01/20 07:04:13;;;;;;;9.98;3.42;;;;;;;2.35;100.00;101666.66;4966780;28;20022;-62
2022/01/20 07:06:39;;;;;;;5.35;2.67;;;;;;;1.98;100.00;101612.06;4966557;28;20026;-62
2022/01/20 07:09:05;;;;;;;12.25;3.72;;;;;;;2.20;100.00;101658.84;4966550;28;20054;-62
2022/01/20 07:11:31;;;;;;;7.95;3.90;;;;;;;2.34;100.00;101694.31;4966701;28;20081;-62
2022/01/20 07:13:57;;;;;;;14.52;4.72;;;;;;;2.32;100.00;101692.56;4965765;28;20029;-61
2022/01/20 07:16:22;;;;;;;9.63;4.53;;;;;;;2.24;100.00;101683.88;4967250;28;20815;-62
2022/01/20 07:18:50;;;;;;;6.28;3.53;;;;;;;2.16;100.00;101667.44;4948484;28;20969;-61
2022/01/20 07:21:16;;;;;;;11.88;4.13;;;;;;;2.25;100.00;101703.78;4966792;28;20119;-62
2022/01/20 07:23:41;;;;;;;12.40;3.72;;;;;;;2.18;100.00;101687.34;4966116;28;20891;-62
2022/01/20 07:26:06;;;;;;;10.15;3.78;;;;;;;2.21;100.00;101696.84;4965783;28;20979;-62
2022/01/20 07:28:32;;;;;;;9.02;3.47;;;;;;;2.19;100.00;101703.75;4968566;28;20022;-62
2022/01/20 07:30:57;;;;;;;9.02;2.90;;;;;;;2.21;100.00;101708.09;4969193;28;20146;-62
2022/01/20 07:33:22;;;;;;;12.82;3.75;;;;;;;2.20;100.00;101700.31;4968242;28;20128;-62
2022/01/20 07:35:48;;;;;;;11.40;3.47;;;;;;;2.14;100.00;101695.06;4970092;28;20092;-62
2022/01/20 07:38:13;;;;;;;7.60;3.03;;;;;;;2.21;100.00;101709.81;4970600;28;20928;-62
2022/01/20 07:40:39;;;;;;;12.27;4.35;;;;;;;2.18;100.00;101712.38;4971524;28;20753;-62
2022/01/20 07:43:04;;;;;;;8.70;3.35;;;;;;;2.17;100.00;101705.47;4972518;28;20096;-62
2022/01/20 07:45:29;;;;;;;13.07;3.17;;;;;;;2.11;100.00;101708.91;4968939;28;20885;-62
2022/01/20 07:47:55;;;;;;;12.25;3.78;;;;;;;2.11;100.00;101720.97;4970224;28;20132;-62
2022/01/20 07:50:20;;;;;;;10.23;3.25;;;;;;;2.18;100.00;101727.94;4971327;28;20033;-62
2022/01/20 07:52:47;;;;;;;19.40;3.85;;;;;;;2.13;100.00;101730.50;4970019;28;20942;-62
2022/01/20 07:55:13;;;;;;;6.53;2.88;;;;;;;2.06;100.00;101724.41;4969693;28;20033;-62
2022/01/20 07:57:38;;;;;;;15.30;4.50;;;;;;;2.10;100.00;101734.78;4970188;28;20092;-62
2022/01/20 08:00:05;;;;;;;15.82;3.97;;;;;;;1.99;100.00;101717.44;4971677;28;20026;-61
2022/01/20 08:02:32;;;;;;;7.10;3.30;;;;;;;2.07;100.00;101725.28;4970496;28;20026;-62
2022/01/20 08:04:57;;;;;;;13.05;3.92;;;;;;;2.17;100.00;101740.03;4970390;28;20022;-62
2022/01/20 08:07:23;;;;;;;20.83;4.38;;;;;;;1.65;100.00;101647.31;4969428;28;20084;-62
2022/01/20 08:09:54;;;;;;;7.75;3.40;;;;;;;2.08;100.00;101728.75;4970496;28;20033;-61
2022/01/20 08:12:19;;;;;;;11.48;4.30;;;;;;;2.15;100.00;101746.94;4970238;28;20044;-62
2022/01/20 08:14:45;;;;;;;8.52;3.80;;;;;;;2.13;100.00;101734.84;4970544;28;20030;-62
2022/01/20 08:17:10;;;;;;;12.70;4.43;;;;;;;2.08;100.00;101726.16;4970584;28;20064;-62
2022/01/20 08:19:36;;;;;;;8.40;3.83;;;;;;;2.05;100.00;101720.09;4970746;28;20046;-62
2022/01/20 08:22:01;;;;;;;15.30;4.05;;;;;;;2.31;100.00;101760.84;4970749;28;20030;-61
2022/01/20 08:24:27;;;;;;;14.10;4.00;;;;;;;2.28;100.00;101750.47;4971885;28;20871;-62
2022/01/20 08:26:52;;;;;;;13.13;3.95;;;;;;;2.30;100.00;101759.13;4971530;28;20192;-62
2022/01/20 08:29:18;;;;;;;15.63;4.30;;;;;;;2.34;100.00;101764.31;4970128;28;20867;-62
2022/01/20 08:31:43;;;;;;;17.95;4.80;;;;;;;2.40;100.00;101771.28;4970107;28;20030;-62
2022/01/20 08:34:08;;;;;;;18.17;4.13;;;;;;;2.39;100.00;101759.16;4968716;28;20022;-62
2022/01/20 08:36:34;;;;;;;15.80;4.00;;;;;;;2.49;100.00;101777.38;4970032;28;20029;-62
2022/01/20 08:38:59;;;;;;;17.90;4.35;;;;;;;2.45;100.00;101769.56;4970442;28;20064;-62
2022/01/20 08:41:25;;;;;;;14.32;4.70;;;;;;;2.45;100.00;101766.97;4967209;28;20041;-63
2022/01/20 08:43:50;;;;;;;13.50;4.28;;;;;;;2.45;100.00;101772.16;4966593;28;20196;-62
2022/01/20 08:46:19;;;;;;;13.68;4.75;;;;;;;2.34;100.00;101750.50;4962967;28;20038;-62
2022/01/20 08:48:45;;;;;;;14.18;4.13;;;;;;;1.98;100.00;101683.78;4969727;28;20755;-63
2022/01/20 08:51:10;;;;;;;13.82;4.82;;;;;;;2.60;100.00;101785.22;4969671;28;20037;-61
2022/01/20 08:53:36;;;;;;;13.23;4.35;;;;;;;2.60;100.00;101781.75;4968052;28;20181;-62
2022/01/20 08:56:02;;;;;;;16.33;3.88;;;;;;;2.64;100.00;101781.75;4969385;28;20096;-62
2022/01/20 08:58:27;;;;;;;14.82;4.57;;;;;;;2.55;100.00;101773.94;4967768;28;20033;-62
2022/01/20 09:00:53;;;;;;;12.32;3.95;;;;;;;2.71;100.00;101793.03;4967646;28;20038;-63
2022/01/20 09:03:21;;;;;;;15.02;4.35;;;;;;;2.73;100.00;101791.31;4969246;28;20022;-62
2022/01/20 09:05:46;;;;;;;14.98;4.28;;;;;;;2.73;100.00;101787.00;4968282;28;20038;-62
2022/01/20 09:08:12;;;;;;;33.00;5.07;;;;;;;2.79;100.00;101804.31;4969058;28;20950;-62
2022/01/20 09:10:39;;;;;;;18.13;4.03;;;;;;;2.76;100.00;101791.34;4969033;28;20057;-63
2022/01/20 09:15:50;;;;;;;18.95;5.07;;;;;;;2.82;100.00;101789.63;4968242;28;20044;-62
2022/01/20 09:18:18;;;;;;;11.98;4.35;;;;;;;3.04;100.00;101830.38;4968706;28;20246;-62
2022/01/20 09:20:43;;;;;;;25.10;4.90;;;;;;;3.11;100.00;101826.06;4968177;28;20036;-62
2022/01/20 09:23:09;;;;;;;7.97;3.75;;;;;;;3.12;100.00;101833.00;4966454;28;20029;-62
2022/01/20 09:25:34;;;;;;;11.43;4.10;;;;;;;3.18;100.00;101832.16;4967492;28;20955;-59
2022/01/20 09:28:00;;;;;;;17.27;4.43;;;;;;;3.08;100.00;101811.34;4966081;28;20033;-61
2022/01/20 09:30:28;;;;;;;14.13;5.00;;;;;;;3.17;100.00;101825.22;4986732;28;20065;-62
2022/01/20 09:33:01;;;;;;;19.20;4.75;;;;;;;3.17;100.00;101825.22;5008672;28;20435;-62
2022/01/20 09:35:36;;;;;;;16.98;4.65;;;;;;;3.14;100.00;101820.03;5017829;28;20096;-62
2022/01/20 09:38:03;;;;;;;16.58;4.13;;;;;;;3.16;100.00;101815.69;4994824;28;20038;-62
2022/01/20 09:40:30;;;;;;;10.27;4.28;;;;;;;3.23;100.00;101817.44;4994754;28;20034;-62
2022/01/20 09:42:56;;;;;;;12.77;4.05;;;;;;;3.26;100.00;101815.72;4994825;28;20477;-62
2022/01/20 09:45:21;;;;;;;11.57;3.67;;;;;;;3.14;100.00;101794.06;4994529;28;20045;-62
2022/01/20 09:47:47;;;;;;;9.00;3.63;;;;;;;3.29;100.00;101817.47;4994839;28;20030;-63
2022/01/20 09:50:14;;;;;;;12.63;4.20;;;;;;;3.23;100.00;101815.72;4993725;28;20105;-63
2022/01/20 09:52:40;;;;;;;15.90;4.90;;;;;;;3.17;100.00;101820.03;4994657;28;20065;-62
2022/01/20 09:55:05;;;;;;;11.05;4.60;;;;;;;3.07;100.00;101833.00;4993327;28;20472;-62
2022/01/20 09:57:31;;;;;;;17.55;3.70;;;;;;;3.06;100.00;101839.03;4994787;28;20544;-63
2022/01/20 09:59:57;;;;;;;15.75;4.00;;;;;;;3.37;100.00;101852.13;4993201;28;20046;-62
2022/01/20 10:02:23;;;;;;;18.33;4.35;;;;;;;3.60;100.00;101858.22;4998077;28;20029;-62
2022/01/20 10:04:48;;;;;;;12.25;3.75;;;;;;;3.72;100.00;101862.59;5009271;28;21036;-62
2022/01/20 10:07:15;;;;;;;11.93;3.92;;;;;;;3.76;100.00;101859.97;5012364;28;20038;-62
2022/01/20 10:09:47;;;;;;;11.70;3.97;;;;;;;3.74;100.00;101866.91;5006058;28;20025;-62
2022/01/20 10:12:14;;;;;;;14.75;4.95;;;;;;;3.78;100.00;101884.25;5010394;28;20061;-62
2022/01/20 10:14:43;;;;;;;12.35;3.72;;;;;;;3.75;100.00;101888.59;5014125;28;20053;-62
2022/01/20 10:17:19;;;;;;;15.98;5.00;;;;;;;3.70;100.00;101896.38;5001140;28;20025;-62
2022/01/20 10:19:45;;;;;;;16.50;4.63;;;;;;;3.63;100.00;101896.34;5004896;28;20030;-62
2022/01/20 10:22:15;;;;;;;14.90;5.03;;;;;;;3.60;100.00;101902.41;5009565;28;20029;-62
2022/01/20 10:24:41;;;;;;;8.65;4.13;;;;;;;3.61;100.00;101891.16;5008628;28;20029;-62
2022/01/20 10:27:09;;;;;;;10.65;3.67;;;;;;;3.31;100.00;101829.56;5012943;28;20427;-62
2022/01/20 10:29:35;;;;;;;11.65;4.20;;;;;;;3.58;100.00;101879.00;5012002;28;20030;-62
2022/01/20 10:32:00;;;;;;;18.85;4.32;;;;;;;3.55;100.00;101885.91;5011750;28;20072;-62
2022/01/20 10:34:31;;;;;;;15.98;4.43;;;;;;;3.52;100.00;101896.31;5012702;28;20452;-63
2022/01/20 10:37:02;;;;;;;16.65;4.80;;;;;;;3.47;100.00;101888.53;5012941;28;20037;-62
2022/01/20 10:39:42;;;;;;;14.77;4.60;;;;;;;3.62;100.00;101885.06;5013212;28;20381;-62
2022/01/20 10:42:14;;;;;;;14.85;4.45;;;;;;;3.93;100.00;101883.38;5013144;28;20113;-62
2022/01/20 10:44:43;;;;;;;18.40;4.68;;;;;;;4.35;100.00;101887.75;5008468;28;20968;-62
2022/01/20 10:47:27;;;;;;;12.95;4.03;;;;;;;4.58;100.00;101885.97;5011635;28;20076;-62
2022/01/20 10:49:52;;;;;;;14.48;4.75;;;;;;;4.46;100.00;101886.00;5012886;28;20034;-62
2022/01/20 10:52:21;;;;;;;15.43;4.82;;;;;;;4.48;100.00;101899.88;5007715;28;20026;-62
2022/01/20 10:54:52;;;;;;;15.93;3.88;;;;;;;4.32;100.00;101898.16;5012750;28;20042;-62
2022/01/20 10:57:25;;;;;;;16.40;4.82;;;;;;;4.12;100.00;101890.34;5013457;28;20038;-62
2022/01/20 10:59:53;;;;;;;13.07;4.87;;;;;;;4.18;100.00;101905.97;5013375;28;20109;-62
2022/01/20 11:02:23;;;;;;;10.98;4.15;;;;;;;4.21;100.00;101910.28;5012256;28;20026;-62
2022/01/20 11:04:48;;;;;;;15.95;4.20;;;;;;;4.10;100.00;101902.47;5013233;28;20041;-62
2022/01/20 11:07:14;;;;;;;10.70;3.85;;;;;;;4.07;100.00;101908.56;5010694;28;20030;-63
2022/01/20 11:09:43;;;;;;;14.60;4.07;;;;;;;4.02;100.00;101906.81;5013190;28;20487;-62
2022/01/20 11:12:14;;;;;;;11.63;4.22;;;;;;;4.01;100.00;101908.56;5012905;28;20029;-63
2022/01/20 11:14:40;;;;;;;11.38;4.28;;;;;;;4.01;100.00;101903.34;5013202;28;20127;-62
2022/01/20 11:17:06;;;;;;;20.90;5.40;;;;;;;4.02;100.00;101902.47;5012874;28;20022;-62
2022/01/20 11:19:36;;;;;;;16.55;4.45;;;;;;;3.98;100.00;101890.34;5012962;28;20431;-62
2022/01/20 11:22:09;;;;;;;16.33;4.93;;;;;;;3.95;100.00;101885.16;5011307;28;20080;-62
2022/01/20 11:24:36;;;;;;;23.90;4.95;;;;;;;4.11;100.00;101905.09;5010529;28;20817;-62
2022/01/20 11:27:02;;;;;;;15.57;3.65;;;;;;;4.18;100.00;101910.28;5012716;28;20026;-62
2022/01/20 11:29:45;;;;;;;13.20;4.68;;;;;;;4.31;100.00;101912.88;5012856;28;20077;-62
2022/01/20 11:32:17;;;;;;;12.75;4.35;;;;;;;4.68;100.00;101892.88;5012597;28;20022;-62
2022/01/20 11:35:07;;;;;;;10.70;3.10;;;;;;;5.01;100.00;101895.41;5011421;28;20064;-62
2022/01/20 11:37:37;;;;;;;13.63;4.10;;;;;;;5.12;100.00;101897.97;5012954;28;20049;-62
2022/01/20 11:40:17;;;;;;;17.15;4.60;;;;;;;5.19;100.00;101898.81;5011274;28;20026;-63
2022/01/20 11:42:55;;;;;;;12.35;3.90;;;;;;;5.22;100.00;101904.88;5012330;28;20549;-63
2022/01/20 11:45:25;;;;;;;13.50;3.83;;;;;;;5.08;100.00;101899.72;5013005;28;20030;-62
2022/01/20 11:47:50;;;;;;;11.68;4.10;;;;;;;4.97;100.00;101909.28;5012292;28;20030;-63
2022/01/20 11:50:19;;;;;;;10.50;2.78;;;;;;;4.83;100.00;101903.28;5011471;28;20048;-62
2022/01/20 11:52:44;;;;;;;10.23;3.47;;;;;;;4.54;100.00;101874.69;5007271;28;20014;-62
2022/01/20 11:55:14;;;;;;;11.45;4.15;;;;;;;4.74;100.00;101905.03;5007554;28;20040;-63
2022/01/20 11:57:40;;;;;;;10.45;3.97;;;;;;;4.67;100.00;101898.97;5010516;28;20083;-62
2022/01/20 12:00:26;;;;;;;10.43;4.13;;;;;;;4.44;100.00;101872.09;5006066;28;20030;-63
2022/01/20 12:02:52;;;;;;;17.23;4.63;;;;;;;4.55;100.00;101918.09;5012638;28;20165;-62
2022/01/20 12:05:19;;;;;;;14.50;3.42;;;;;;;4.16;100.00;101860.00;5012371;28;20117;-62
2022/01/20 12:07:45;;;;;;;14.82;4.72;;;;;;;4.45;100.00;101905.06;5012420;28;20044;-63
2022/01/20 12:10:12;;;;;;;19.48;4.13;;;;;;;4.51;100.00;101908.53;5012297;28;20025;-63
2022/01/20 12:12:39;;;;;;;8.55;3.85;;;;;;;4.27;100.00;101843.50;4985140;28;20140;-63
2022/01/20 12:15:12;;;;;;;26.40;4.70;;;;;;;4.24;100.00;101824.44;4986576;28;20050;-63
2022/01/20 12:17:41;;;;;;;20.23;4.53;;;;;;;4.63;100.00;101889.41;4987320;28;20069;-63
2022/01/20 12:20:08;;;;;;;14.25;4.15;;;;;;;4.70;100.00;101893.75;4984064;28;20704;-63
2022/01/20 12:22:41;;;;;;;8.13;3.70;;;;;;;4.72;100.00;101888.53;4982531;28;20022;-62
2022/01/20 12:25:07;;;;;;;9.32;3.42;;;;;;;4.61;100.00;101876.41;4977017;28;20030;-62